createdAt,value
2022-08-16T00:01:17.593Z,3.17
2022-08-16T00:03:45.316Z,3.10
2022-08-16T00:06:13.145Z,2.75
2022-08-16T00:08:42.506Z,2.97
2022-08-16T00:11:16.732Z,2.92
2022-08-16T00:13:53.631Z,2.60
2022-08-16T00:17:01.134Z,3.03
2022-08-16T00:19:22.364Z,2.50
2022-08-16T00:21:55.205Z,2.78
2022-08-16T00:24:32.785Z,2.60
2022-08-16T00:27:05.958Z,2.65
2022-08-16T00:29:37.541Z,2.97
2022-08-16T00:32:07.418Z,2.80
2022-08-16T00:34:44.988Z,2.75
2022-08-16T00:37:24.332Z,2.83
2022-08-16T00:39:57.378Z,2.97
2022-08-16T00:42:35.753Z,3.00
2022-08-16T00:45:26.565Z,2.92
2022-08-16T00:47:55.269Z,2.65
2022-08-16T00:50:36.241Z,2.85
2022-08-16T00:53:11.775Z,2.78
2022-08-16T00:55:43.547Z,2.67
2022-08-16T00:58:13.204Z,3.03
2022-08-16T01:00:53.931Z,3.00
2022-08-16T01:03:30.390Z,2.92
2022-08-16T01:06:32.473Z,2.90
2022-08-16T01:09:00.094Z,3.17
2022-08-16T01:11:29.719Z,2.63
2022-08-16T01:14:04.779Z,2.85
2022-08-16T01:16:35.161Z,2.90
2022-08-16T01:19:07.645Z,2.90
2022-08-16T01:22:47.814Z,3.13
2022-08-16T01:24:55.647Z,3.30
2022-08-16T01:27:29.924Z,4.25
2022-08-16T01:30:19.311Z,3.22
2022-08-16T01:33:02.662Z,3.53
2022-08-16T01:35:52.725Z,3.17
2022-08-16T01:38:35.328Z,3.80
2022-08-16T01:41:24.069Z,3.72
2022-08-16T01:43:54.818Z,3.10
2022-08-16T01:46:47.530Z,3.50
2022-08-16T01:49:43.076Z,2.90
2022-08-16T01:52:28.256Z,3.83
2022-08-16T01:55:22.331Z,3.20
2022-08-16T01:57:53.198Z,3.20
2022-08-16T02:00:29.280Z,3.55
2022-08-16T02:02:59.403Z,3.75
2022-08-16T02:05:30.277Z,3.40
2022-08-16T02:08:00.865Z,3.05
2022-08-16T02:10:30.065Z,3.30
2022-08-16T02:13:02.769Z,3.20
2022-08-16T02:15:35.582Z,3.10
2022-08-16T02:18:13.015Z,3.20
2022-08-16T02:20:45.433Z,3.20
2022-08-16T02:23:17.148Z,3.40
2022-08-16T02:25:52.844Z,3.47
2022-08-16T02:28:26.047Z,3.05
2022-08-16T02:30:55.874Z,3.30
2022-08-16T02:33:43.547Z,3.13
2022-08-16T02:36:47.177Z,3.33
2022-08-16T02:39:09.587Z,3.20
2022-08-16T02:41:39.530Z,3.40
2022-08-16T02:44:13.611Z,3.45
2022-08-16T02:46:49.886Z,3.50
2022-08-16T02:49:21.844Z,3.55
2022-08-16T02:51:52.213Z,3.50
2022-08-16T02:54:19.025Z,3.13
2022-08-16T02:56:57.207Z,3.20
2022-08-16T02:59:41.336Z,3.50
2022-08-16T03:02:10.407Z,3.40
2022-08-16T03:04:52.656Z,3.50
2022-08-16T03:07:28.793Z,3.40
2022-08-16T03:10:00.248Z,3.13
2022-08-16T03:12:36.812Z,2.85
2022-08-16T03:15:10.649Z,3.30
2022-08-16T03:17:53.397Z,3.33
2022-08-16T03:20:32.396Z,3.70
2022-08-16T03:23:03.483Z,3.60
2022-08-16T03:25:41.048Z,3.63
2022-08-16T03:28:11.730Z,3.35
2022-08-16T03:30:38.650Z,3.40
2022-08-16T03:33:10.278Z,4.60
2022-08-16T03:35:45.782Z,3.95
2022-08-16T03:38:33.659Z,3.70
2022-08-16T03:41:25.400Z,3.65
2022-08-16T03:43:58.205Z,3.85
2022-08-16T03:46:48.117Z,3.45
2022-08-16T03:49:37.104Z,3.45
2022-08-16T03:52:11.215Z,3.40
2022-08-16T03:54:53.540Z,3.67
2022-08-16T03:57:35.512Z,3.75
2022-08-16T04:00:36.125Z,4.03
2022-08-16T04:03:18.715Z,4.00
2022-08-16T04:05:54.011Z,4.05
2022-08-16T04:08:27.437Z,3.70
2022-08-16T04:11:08.672Z,3.38
2022-08-16T04:14:30.784Z,3.60
2022-08-16T04:16:49.355Z,3.90
2022-08-16T04:19:45.405Z,4.10
2022-08-16T04:22:17.112Z,4.00
2022-08-16T04:24:59.418Z,4.03
2022-08-16T04:27:39.874Z,3.65
2022-08-16T04:30:34.716Z,3.55
2022-08-16T04:33:04.498Z,3.80
2022-08-16T04:35:37.345Z,4.30
2022-08-16T04:38:32.061Z,3.65
2022-08-16T04:41:03.832Z,3.65
2022-08-16T04:43:33.596Z,3.83
2022-08-16T04:47:00.019Z,3.55
2022-08-16T04:49:19.571Z,3.40
2022-08-16T04:52:01.157Z,3.80
2022-08-16T04:54:33.469Z,3.22
2022-08-16T04:57:14.613Z,4.43
2022-08-16T04:59:55.010Z,3.70
2022-08-16T05:02:42.460Z,4.03
2022-08-16T05:05:17.804Z,4.03
2022-08-16T05:07:58.530Z,4.25
2022-08-16T05:10:40.779Z,3.78
2022-08-16T05:13:17.896Z,3.85
2022-08-16T05:15:49.799Z,4.50
2022-08-16T05:18:23.357Z,3.78
2022-08-16T05:21:09.535Z,4.13
2022-08-16T05:23:51.787Z,3.78
2022-08-16T05:26:36.004Z,4.00
2022-08-16T05:29:11.094Z,4.53
2022-08-16T05:31:53.411Z,3.78
2022-08-16T05:34:25.165Z,5.25
2022-08-16T05:36:57.367Z,4.32
2022-08-16T05:39:33.401Z,3.60
2022-08-16T05:42:10.891Z,3.75
2022-08-16T05:44:40.174Z,4.10
2022-08-16T05:50:28.269Z,4.13
2022-08-16T05:53:19.621Z,3.88
2022-08-16T05:56:19.651Z,3.88
2022-08-16T05:59:27.516Z,4.15
2022-08-16T06:01:56.457Z,4.38
2022-08-16T06:04:37.316Z,3.42
2022-08-16T06:07:26.317Z,4.20
2022-08-16T06:10:33.152Z,4.03
2022-08-16T06:13:17.010Z,4.10
2022-08-16T06:15:46.144Z,3.63
2022-08-16T06:18:38.094Z,3.63
2022-08-16T06:24:54.602Z,3.85
2022-08-16T06:27:24.860Z,4.07
2022-08-16T06:33:04.023Z,4.68
2022-08-16T06:35:55.253Z,4.82
2022-08-16T06:46:51.052Z,4.35
2022-08-16T06:58:21.904Z,5.25
2022-08-16T07:01:17.069Z,5.30
2022-08-16T07:04:33.199Z,5.97
2022-08-16T07:07:14.582Z,5.05
2022-08-16T07:10:08.739Z,5.60
2022-08-16T07:13:16.665Z,5.75
2022-08-16T07:16:20.486Z,6.18
2022-08-16T07:19:17.152Z,6.97
2022-08-16T07:22:02.635Z,6.35
2022-08-16T07:24:49.910Z,8.27
2022-08-16T07:30:38.932Z,7.30
2022-08-16T07:33:55.195Z,8.13
2022-08-16T07:36:59.267Z,7.82
2022-08-16T07:40:11.508Z,7.93
2022-08-16T07:43:06.950Z,8.13
2022-08-16T07:45:35.871Z,7.85
2022-08-16T07:48:11.851Z,7.95
2022-08-16T07:50:57.184Z,8.05
2022-08-16T07:53:35.322Z,7.53
2022-08-16T07:56:21.138Z,5.65
2022-08-16T07:59:45.896Z,5.30
2022-08-16T08:02:58.233Z,4.82
2022-08-16T08:05:39.764Z,5.13
2022-08-16T08:08:49.593Z,5.13
2022-08-16T08:11:09.360Z,4.75
2022-08-16T08:13:42.432Z,4.68
2022-08-16T08:16:18.489Z,4.55
2022-08-16T08:18:50.348Z,4.80
2022-08-16T08:21:59.106Z,3.78
2022-08-16T08:24:51.713Z,3.75
2022-08-16T08:27:32.785Z,3.60
2022-08-16T08:30:52.415Z,3.85
2022-08-16T11:46:43.138Z,4.82
2022-08-16T11:49:43.237Z,4.80
2022-08-16T11:53:59.104Z,5.47
2022-08-16T11:56:52.597Z,4.88
2022-08-16T11:59:54.994Z,5.18
2022-08-16T12:02:51.123Z,5.85
2022-08-16T12:06:03.500Z,5.07
2022-08-16T12:09:15.413Z,5.45
2022-08-16T12:12:29.370Z,5.82
2022-08-16T13:20:45.373Z,7.10
2022-08-16T13:23:18.834Z,6.25
2022-08-16T13:25:54.878Z,6.28
2022-08-16T13:28:22.627Z,6.38
2022-08-16T13:30:59.529Z,5.85
2022-08-16T13:33:58.828Z,6.13
2022-08-16T13:36:54.075Z,6.13
2022-08-16T13:39:38.011Z,5.97
2022-08-16T13:52:15.884Z,4.72
2022-08-16T14:18:14.892Z,6.07
2022-08-16T14:23:10.529Z,5.90
2022-08-16T14:28:54.583Z,5.95
2022-08-16T14:31:37.519Z,6.10
2022-08-16T14:34:15.994Z,6.10
2022-08-16T14:37:00.021Z,6.00
2022-08-16T14:39:30.113Z,6.60
2022-08-16T14:42:06.523Z,5.90
2022-08-16T14:44:37.056Z,6.53
2022-08-16T14:47:37.971Z,5.53
2022-08-16T14:57:45.692Z,5.40
2022-08-16T15:00:51.008Z,5.03
2022-08-16T15:03:44.911Z,6.30
2022-08-16T15:06:14.619Z,5.63
2022-08-16T15:09:11.617Z,7.10
2022-08-16T15:13:03.880Z,5.68
2022-08-16T15:20:00.603Z,5.65
2022-08-16T15:22:35.722Z,5.60
2022-08-16T15:25:15.973Z,6.00
2022-08-16T15:31:31.100Z,5.47
2022-08-16T15:36:56.238Z,5.50
2022-08-16T15:39:35.387Z,6.10
2022-08-16T15:42:28.695Z,6.38
2022-08-16T15:44:59.992Z,5.63
2022-08-16T15:47:37.684Z,6.50
2022-08-16T15:50:10.995Z,6.95
2022-08-16T15:52:45.866Z,6.95
2022-08-16T15:55:29.860Z,6.55
2022-08-16T15:58:35.495Z,6.80
2022-08-16T16:01:08.511Z,6.65
2022-08-16T16:04:00.013Z,7.00
2022-08-16T16:06:29.565Z,6.53
2022-08-16T16:08:58.505Z,6.63
2022-08-16T16:11:29.056Z,6.90
2022-08-16T16:15:01.517Z,7.85
2022-08-16T16:17:33.630Z,8.45
2022-08-16T16:20:53.546Z,9.35
2022-08-16T16:23:30.962Z,9.85
2022-08-16T16:26:40.220Z,10.38
2022-08-16T16:29:19.890Z,9.77
2022-08-16T16:31:59.699Z,8.85
2022-08-16T16:34:32.422Z,8.88
2022-08-16T16:37:05.426Z,8.95
2022-08-16T16:50:05.913Z,11.27
2022-08-16T16:52:47.189Z,11.35
2022-08-16T16:55:40.163Z,9.60
2022-08-16T16:58:35.574Z,8.32
2022-08-16T17:02:00.529Z,7.18
2022-08-16T17:04:43.621Z,7.30
2022-08-16T17:07:24.018Z,6.18
2022-08-16T17:10:00.795Z,6.13
2022-08-16T17:12:47.025Z,5.97
2022-08-16T17:15:15.031Z,5.78
2022-08-16T17:17:59.961Z,6.88
2022-08-16T17:20:49.496Z,6.28
2022-08-16T17:26:35.560Z,5.70
2022-08-16T17:29:30.939Z,5.90
2022-08-16T17:32:34.163Z,6.38
2022-08-16T17:36:36.200Z,6.13
2022-08-16T17:39:29.631Z,6.50
2022-08-16T17:42:55.891Z,6.05
2022-08-16T17:48:22.270Z,6.32
2022-08-16T17:50:54.860Z,6.68
2022-08-16T17:53:25.339Z,6.38
2022-08-16T17:55:54.636Z,5.90
2022-08-16T17:58:24.171Z,6.70
2022-08-16T18:00:57.522Z,5.82
2022-08-16T18:04:06.546Z,6.93
2022-08-16T18:06:29.592Z,6.35
2022-08-16T18:09:03.652Z,6.80
2022-08-16T18:11:44.528Z,7.40
2022-08-16T18:14:15.778Z,7.05
2022-08-16T18:16:43.402Z,7.38
2022-08-16T18:19:10.676Z,7.20
2022-08-16T18:21:56.066Z,8.90
2022-08-16T18:24:36.861Z,8.93
2022-08-16T18:27:48.759Z,10.05
2022-08-16T18:30:27.686Z,9.82
2022-08-16T18:35:59.981Z,11.20
2022-08-16T18:38:38.266Z,9.57
2022-08-16T18:41:46.770Z,9.55
2022-08-16T18:44:31.018Z,8.93
2022-08-16T18:51:03.340Z,9.48
2022-08-16T18:54:27.815Z,9.25
2022-08-16T18:57:22.917Z,9.52
2022-08-16T19:00:21.456Z,10.10
2022-08-16T19:04:47.698Z,9.52
2022-08-16T19:07:35.254Z,8.90
2022-08-16T19:12:49.271Z,7.72
2022-08-16T19:15:22.485Z,9.15
2022-08-16T19:17:51.182Z,7.68
2022-08-16T19:20:24.530Z,6.97
2022-08-16T19:23:05.389Z,7.00
2022-08-16T19:25:49.177Z,6.13
2022-08-16T19:28:48.953Z,6.97
2022-08-16T19:31:26.617Z,6.28
2022-08-16T19:33:57.372Z,6.40
2022-08-16T19:36:35.051Z,5.60
2022-08-16T19:39:12.299Z,5.95
2022-08-16T19:41:53.766Z,6.18
2022-08-16T19:44:22.713Z,6.05
2022-08-16T19:46:50.540Z,6.20
2022-08-16T19:49:51.382Z,6.72
2022-08-16T19:52:32.144Z,6.43
2022-08-16T19:55:08.183Z,5.75
2022-08-16T19:57:41.653Z,5.47
2022-08-16T20:00:13.679Z,6.43
2022-08-16T20:02:49.955Z,5.88
2022-08-16T20:05:20.714Z,6.28
2022-08-16T20:07:50.412Z,6.25
2022-08-16T20:10:23.630Z,6.18
2022-08-16T20:13:02.431Z,5.90
2022-08-16T20:15:41.141Z,5.72
2022-08-16T20:18:24.502Z,6.35
2022-08-16T20:20:57.379Z,6.28
2022-08-16T20:23:25.475Z,5.63
2022-08-16T20:25:57.667Z,5.70
2022-08-16T20:28:52.114Z,6.22
2022-08-16T20:31:42.188Z,6.18
2022-08-16T20:34:23.328Z,7.13
2022-08-16T20:37:07.661Z,7.70
2022-08-16T20:39:37.068Z,7.47
2022-08-16T20:42:07.804Z,7.75
2022-08-16T20:44:35.261Z,8.05
2022-08-16T20:47:12.709Z,6.95
2022-08-16T20:49:42.174Z,6.63
2022-08-16T20:52:11.390Z,5.55
2022-08-16T20:54:42.922Z,6.30
2022-08-16T20:57:10.889Z,6.15
2022-08-16T20:59:40.004Z,5.18
2022-08-16T21:02:10.398Z,5.32
2022-08-16T21:04:37.651Z,6.05
2022-08-16T21:07:07.863Z,6.03
2022-08-16T21:09:38.345Z,5.47
2022-08-16T21:12:11.447Z,5.38
2022-08-16T21:14:43.155Z,5.68
2022-08-16T21:17:13.265Z,5.07
2022-08-16T21:19:41.987Z,5.72
2022-08-16T21:22:20.287Z,5.55
2022-08-16T21:24:48.784Z,4.90
2022-08-16T21:27:21.105Z,5.47
2022-08-16T21:29:52.277Z,5.68
2022-08-16T21:32:35.658Z,4.95
2022-08-16T21:35:11.187Z,5.13
2022-08-16T21:40:09.149Z,5.38
2022-08-16T21:42:39.667Z,5.28
2022-08-16T21:45:12.460Z,5.57
2022-08-16T21:47:39.399Z,5.72
2022-08-16T21:50:07.000Z,4.63
2022-08-16T21:52:33.949Z,4.93
2022-08-16T21:55:01.163Z,5.00
2022-08-16T21:57:36.191Z,5.07
2022-08-16T22:00:10.560Z,4.90
2022-08-16T22:02:39.033Z,5.25
2022-08-16T22:05:06.254Z,4.80
2022-08-16T22:07:33.543Z,5.07
2022-08-16T22:11:04.749Z,4.90
2022-08-16T22:12:49.291Z,4.97
2022-08-16T22:15:25.604Z,5.10
2022-08-16T22:17:59.179Z,5.30
2022-08-16T22:20:29.606Z,4.72
2022-08-16T22:23:12.940Z,4.57
2022-08-16T22:25:47.165Z,4.60
2022-08-16T22:28:15.870Z,5.03
2022-08-16T22:30:43.315Z,5.25
2022-08-16T22:33:30.485Z,4.53
2022-08-16T22:36:01.133Z,5.60
2022-08-16T22:38:56.315Z,4.88
2022-08-16T22:41:17.836Z,5.20
2022-08-16T22:43:48.668Z,5.45
2022-08-16T22:46:15.501Z,4.90
2022-08-16T22:48:43.142Z,5.28
2022-08-16T22:51:10.183Z,5.32
2022-08-16T22:53:37.485Z,5.45
2022-08-16T22:56:04.829Z,5.65
2022-08-16T22:58:34.622Z,5.28
2022-08-16T23:01:06.021Z,6.00
2022-08-16T23:03:33.070Z,5.82
2022-08-16T23:06:00.562Z,5.60
2022-08-16T23:08:35.903Z,4.88
2022-08-16T23:11:19.485Z,4.93
2022-08-16T23:13:49.876Z,5.65
2022-08-16T23:16:33.796Z,6.30
2022-08-16T23:19:08.010Z,6.00
2022-08-16T23:21:37.306Z,7.10
2022-08-16T23:24:05.818Z,6.80
2022-08-16T23:26:44.140Z,6.28
2022-08-16T23:29:24.451Z,6.70
2022-08-16T23:32:08.664Z,5.63
2022-08-16T23:34:35.494Z,5.78
2022-08-16T23:37:02.250Z,5.80
2022-08-16T23:39:29.523Z,6.22
2022-08-16T23:41:56.715Z,6.28
2022-08-16T23:44:56.255Z,6.05
2022-08-16T23:47:10.975Z,6.13
2022-08-16T23:49:56.076Z,6.22
2022-08-16T23:52:39.373Z,6.53
2022-08-16T23:55:11.918Z,7.65
2022-08-16T23:57:38.698Z,8.07
